createdAt,value
2019-03-29T00:01:10.626Z,6.10
2019-03-29T00:03:14.427Z,6.10
2019-03-29T00:05:18.931Z,6.00
2019-03-29T00:07:22.950Z,6.10
2019-03-29T00:09:26.818Z,6.20
2019-03-29T00:11:31.102Z,6.20
2019-03-29T00:13:35.062Z,6.30
2019-03-29T00:15:38.898Z,6.30
2019-03-29T00:17:43.992Z,6.40
2019-03-29T00:19:47.959Z,6.40
2019-03-29T00:21:51.934Z,6.40
2019-03-29T00:24:06.731Z,6.50
2019-03-29T00:26:04.042Z,6.50
2019-03-29T00:28:07.969Z,6.50
2019-03-29T00:30:11.983Z,6.50
2019-03-29T00:32:17.516Z,6.50
2019-03-29T00:34:21.548Z,6.50
2019-03-29T00:36:25.995Z,6.50
2019-03-29T00:38:29.990Z,6.50
2019-03-29T00:40:34.164Z,6.50
2019-03-29T00:42:38.005Z,6.60
2019-03-29T00:44:42.061Z,6.60
2019-03-29T00:46:45.963Z,6.60
2019-03-29T00:48:49.808Z,6.60
2019-03-29T00:50:53.886Z,6.60
2019-03-29T00:52:57.680Z,6.60
2019-03-29T00:55:01.569Z,6.60
2019-03-29T00:57:05.500Z,6.70
2019-03-29T00:59:09.371Z,6.70
2019-03-29T01:01:13.243Z,6.70
2019-03-29T01:03:17.184Z,6.70
2019-03-29T01:05:21.221Z,6.80
2019-03-29T01:07:25.196Z,6.80
2019-03-29T01:09:29.080Z,6.80
2019-03-29T01:11:32.959Z,6.80
2019-03-29T01:13:37.168Z,6.80
2019-03-29T01:15:41.064Z,6.80
2019-03-29T01:17:45.766Z,6.80
2019-03-29T01:19:49.861Z,6.80
2019-03-29T01:21:53.772Z,6.90
2019-03-29T01:23:57.673Z,6.90
2019-03-29T01:26:01.726Z,6.90
2019-03-29T01:28:05.636Z,6.90
2019-03-29T01:30:09.974Z,6.90
2019-03-29T01:32:13.846Z,6.90
2019-03-29T01:34:17.724Z,7.00
2019-03-29T01:36:21.600Z,7.00
2019-03-29T01:38:25.519Z,7.00
2019-03-29T01:40:29.467Z,7.00
2019-03-29T01:42:33.341Z,7.00
2019-03-29T01:44:37.216Z,7.00
2019-03-29T01:46:41.222Z,7.10
2019-03-29T01:48:46.917Z,7.10
2019-03-29T01:50:50.728Z,7.10
2019-03-29T01:52:54.637Z,7.10
2019-03-29T01:55:01.305Z,7.10
2019-03-29T01:57:05.179Z,7.10
2019-03-29T01:59:09.059Z,7.10
2019-03-29T02:01:26.135Z,7.10
2019-03-29T02:03:30.030Z,7.10
2019-03-29T02:05:33.864Z,7.10
2019-03-29T02:07:38.223Z,7.10
2019-03-29T02:09:42.459Z,7.10
2019-03-29T02:11:46.276Z,7.10
2019-03-29T02:13:50.127Z,7.20
2019-03-29T02:15:53.983Z,7.20
2019-03-29T02:17:57.904Z,7.20
2019-03-29T02:20:01.827Z,7.20
2019-03-29T02:22:05.708Z,7.20
2019-03-29T02:24:09.594Z,7.20
2019-03-29T02:26:13.479Z,7.20
2019-03-29T02:28:17.382Z,7.20
2019-03-29T02:30:22.126Z,7.20
2019-03-29T02:32:26.103Z,7.20
2019-03-29T02:34:29.965Z,7.20
2019-03-29T02:36:34.649Z,7.20
2019-03-29T02:38:54.211Z,7.20
2019-03-29T02:40:44.360Z,7.30
2019-03-29T02:42:48.223Z,7.30
2019-03-29T02:44:52.262Z,7.30
2019-03-29T02:46:56.180Z,7.30
2019-03-29T02:48:59.997Z,7.30
2019-03-29T02:51:04.849Z,7.40
2019-03-29T02:53:09.038Z,7.40
2019-03-29T02:55:13.145Z,7.30
2019-03-29T02:57:17.066Z,7.40
2019-03-29T02:59:21.019Z,7.30
2019-03-29T03:01:24.879Z,7.40
2019-03-29T03:03:28.774Z,7.40
2019-03-29T03:05:32.618Z,7.40
2019-03-29T03:07:36.539Z,7.40
2019-03-29T03:09:40.424Z,7.40
2019-03-29T03:11:44.362Z,7.40
2019-03-29T03:13:48.292Z,7.40
2019-03-29T03:15:52.203Z,7.40
2019-03-29T03:17:56.057Z,7.40
2019-03-29T03:19:59.846Z,7.40
2019-03-29T03:22:04.110Z,7.50
2019-03-29T03:24:07.972Z,7.50
2019-03-29T03:26:11.845Z,7.50
2019-03-29T03:28:15.720Z,7.40
2019-03-29T03:30:19.916Z,7.50
2019-03-29T03:32:23.765Z,7.50
2019-03-29T03:34:27.636Z,7.50
2019-03-29T03:36:31.529Z,7.50
2019-03-29T03:38:35.339Z,7.50
2019-03-29T03:40:39.226Z,7.50
2019-03-29T03:42:43.163Z,7.50
2019-03-29T03:44:46.996Z,7.60
2019-03-29T03:46:50.890Z,7.60
2019-03-29T03:48:54.765Z,7.60
2019-03-29T03:50:58.838Z,7.60
2019-03-29T03:53:02.764Z,7.50
2019-03-29T03:55:07.441Z,7.60
2019-03-29T03:57:11.823Z,7.60
2019-03-29T03:59:15.939Z,7.60
2019-03-29T04:01:19.799Z,7.60
2019-03-29T04:03:24.160Z,7.60
2019-03-29T04:05:28.056Z,7.60
2019-03-29T04:07:33.531Z,7.60
2019-03-29T04:09:49.124Z,7.60
2019-03-29T04:11:42.970Z,7.60
2019-03-29T04:13:46.788Z,7.60
2019-03-29T04:15:50.747Z,7.60
2019-03-29T04:17:54.591Z,7.60
2019-03-29T04:19:58.408Z,7.70
2019-03-29T04:22:02.339Z,7.70
2019-03-29T04:24:06.240Z,7.70
2019-03-29T04:26:10.102Z,7.70
2019-03-29T04:28:13.952Z,7.70
2019-03-29T04:30:17.861Z,7.70
2019-03-29T04:32:21.772Z,7.70
2019-03-29T04:34:26.956Z,7.70
2019-03-29T04:36:30.850Z,7.70
2019-03-29T04:38:34.722Z,7.70
2019-03-29T04:40:38.602Z,7.80
2019-03-29T04:42:42.479Z,7.80
2019-03-29T04:44:46.340Z,7.80
2019-03-29T04:46:50.269Z,7.80
2019-03-29T04:48:54.112Z,7.80
2019-03-29T04:50:57.948Z,7.90
2019-03-29T04:53:01.873Z,7.90
2019-03-29T04:55:06.451Z,7.90
2019-03-29T04:57:10.317Z,7.90
2019-03-29T04:59:14.199Z,8.00
2019-03-29T05:01:18.019Z,7.90
2019-03-29T05:03:21.931Z,7.90
2019-03-29T05:05:25.810Z,8.00
2019-03-29T05:07:29.649Z,8.00
2019-03-29T05:09:33.513Z,8.00
2019-03-29T05:11:37.451Z,8.00
2019-03-29T05:13:41.315Z,8.00
2019-03-29T05:15:45.150Z,8.00
2019-03-29T05:17:49.022Z,8.00
2019-03-29T05:19:52.954Z,8.00
2019-03-29T05:21:56.739Z,8.10
2019-03-29T05:24:00.696Z,8.10
2019-03-29T05:26:04.540Z,8.10
2019-03-29T05:28:08.435Z,8.10
2019-03-29T05:30:12.546Z,8.10
2019-03-29T05:32:16.396Z,8.10
2019-03-29T05:34:20.293Z,8.10
2019-03-29T05:36:24.179Z,8.20
2019-03-29T05:38:28.022Z,8.10
2019-03-29T05:40:35.244Z,8.20
2019-03-29T05:42:37.780Z,8.20
2019-03-29T05:44:41.657Z,8.20
2019-03-29T05:46:45.498Z,8.20
2019-03-29T05:48:49.434Z,8.20
2019-03-29T05:50:53.379Z,8.30
2019-03-29T05:52:57.302Z,8.30
2019-03-29T05:55:01.209Z,8.30
2019-03-29T05:57:05.147Z,8.40
2019-03-29T05:59:09.026Z,8.40
2019-03-29T06:01:12.870Z,8.40
2019-03-29T06:03:16.774Z,8.40
2019-03-29T06:05:20.681Z,8.40
2019-03-29T06:07:28.194Z,8.40
2019-03-29T06:09:34.824Z,8.50
2019-03-29T06:11:37.589Z,8.50
2019-03-29T06:13:41.508Z,8.50
2019-03-29T06:15:45.432Z,8.50
2019-03-29T06:17:49.482Z,8.60
2019-03-29T06:19:53.438Z,8.60
2019-03-29T06:21:57.237Z,8.60
2019-03-29T06:24:01.608Z,8.70
2019-03-29T06:26:06.976Z,8.70
2019-03-29T06:28:10.794Z,8.70
2019-03-29T06:30:17.674Z,8.70
2019-03-29T06:32:21.445Z,8.80
2019-03-29T06:34:25.368Z,8.80
2019-03-29T06:36:31.685Z,8.80
2019-03-29T06:38:36.738Z,8.80
2019-03-29T06:40:40.620Z,8.90
2019-03-29T06:42:44.522Z,8.90
2019-03-29T06:44:48.364Z,8.90
2019-03-29T06:46:52.208Z,8.90
2019-03-29T06:48:56.278Z,8.90
2019-03-29T06:51:00.158Z,9.00
2019-03-29T06:53:04.083Z,9.00
2019-03-29T06:55:08.008Z,9.00
2019-03-29T06:57:11.856Z,9.00
2019-03-29T06:59:15.803Z,9.10
2019-03-29T07:01:19.824Z,9.10
2019-03-29T07:03:23.726Z,9.20
2019-03-29T07:05:27.540Z,9.20
2019-03-29T07:07:31.524Z,9.20
2019-03-29T07:09:35.435Z,9.20
2019-03-29T07:11:40.735Z,9.20
2019-03-29T07:13:56.656Z,9.30
2019-03-29T07:15:50.159Z,9.30
2019-03-29T07:17:53.992Z,9.30
2019-03-29T07:19:57.946Z,9.40
2019-03-29T07:22:02.226Z,9.50
2019-03-29T07:24:06.507Z,9.50
2019-03-29T07:26:10.424Z,9.50
2019-03-29T07:28:14.308Z,9.50
2019-03-29T07:30:18.511Z,9.60
2019-03-29T07:32:22.382Z,9.60
2019-03-29T07:34:26.446Z,9.70
2019-03-29T07:36:30.317Z,9.80
2019-03-29T07:38:35.312Z,9.80
2019-03-29T07:40:39.210Z,9.90
2019-03-29T07:42:43.130Z,9.90
2019-03-29T07:44:47.039Z,9.90
2019-03-29T07:46:50.892Z,9.80
2019-03-29T07:48:54.697Z,9.90
2019-03-29T07:50:58.600Z,9.90
2019-03-29T07:53:02.518Z,9.90
2019-03-29T07:55:07.714Z,10.00
2019-03-29T07:57:11.603Z,10.00
2019-03-29T07:59:15.435Z,10.00
2019-03-29T08:01:19.281Z,10.10
2019-03-29T08:03:23.615Z,10.00
2019-03-29T08:05:27.800Z,10.10
2019-03-29T08:07:31.657Z,10.10
2019-03-29T08:09:35.653Z,10.10
2019-03-29T08:11:46.311Z,10.10
2019-03-29T08:13:45.018Z,10.20
2019-03-29T08:15:48.915Z,10.20
2019-03-29T08:17:52.822Z,10.30
2019-03-29T08:20:24.369Z,10.30
2019-03-29T08:22:02.247Z,10.30
2019-03-29T08:24:06.135Z,10.30
2019-03-29T08:26:10.062Z,10.30
2019-03-29T08:28:13.903Z,10.20
2019-03-29T08:30:17.810Z,10.20
2019-03-29T08:32:21.695Z,10.20
2019-03-29T08:34:25.605Z,10.20
2019-03-29T08:36:29.405Z,10.20
2019-03-29T08:38:33.287Z,10.20
2019-03-29T08:40:37.198Z,10.20
2019-03-29T08:42:41.049Z,10.20
2019-03-29T08:44:45.032Z,10.30
2019-03-29T08:46:48.915Z,10.30
2019-03-29T08:48:52.756Z,10.30
2019-03-29T08:50:56.755Z,10.30
2019-03-29T08:53:00.684Z,10.40
2019-03-29T08:55:06.216Z,10.40
2019-03-29T08:57:10.781Z,10.50
2019-03-29T08:59:17.509Z,10.50
2019-03-29T09:01:20.551Z,10.60
2019-03-29T09:03:24.867Z,10.60
2019-03-29T09:05:28.740Z,10.60
2019-03-29T09:07:44.003Z,10.60
2019-03-29T09:09:38.374Z,10.60
2019-03-29T09:11:42.258Z,10.70
2019-03-29T09:13:46.098Z,10.70
2019-03-29T09:15:50.076Z,10.70
2019-03-29T09:17:53.975Z,10.60
2019-03-29T09:19:57.839Z,10.60
2019-03-29T09:22:01.739Z,10.60
2019-03-29T09:24:05.620Z,10.60
2019-03-29T09:26:09.462Z,10.60
2019-03-29T09:28:13.628Z,10.50
2019-03-29T09:30:17.795Z,10.50
2019-03-29T09:32:21.670Z,10.50
2019-03-29T09:34:28.730Z,10.50
2019-03-29T09:36:31.159Z,10.50
2019-03-29T09:38:34.971Z,10.50
2019-03-29T09:40:38.902Z,10.50
2019-03-29T09:42:42.784Z,10.50
2019-03-29T09:44:46.730Z,10.50
2019-03-29T09:46:50.693Z,10.50
2019-03-29T09:48:56.064Z,10.60
2019-03-29T09:50:59.907Z,10.60
2019-03-29T09:53:03.907Z,10.60
2019-03-29T09:55:07.891Z,10.70
2019-03-29T09:57:15.527Z,10.70
2019-03-29T09:59:17.323Z,10.80
2019-03-29T10:01:21.269Z,10.80
2019-03-29T10:03:25.155Z,10.80
2019-03-29T10:05:31.275Z,10.80
2019-03-29T10:07:34.535Z,10.80
2019-03-29T10:09:38.481Z,10.90
2019-03-29T10:11:42.472Z,11.00
2019-03-29T10:13:46.377Z,11.10
2019-03-29T10:15:51.452Z,11.10
2019-03-29T10:17:55.495Z,11.20
2019-03-29T10:19:59.317Z,11.30
2019-03-29T10:22:03.186Z,11.40
2019-03-29T10:24:07.103Z,11.40
2019-03-29T10:26:10.994Z,11.40
2019-03-29T10:28:14.871Z,11.50
2019-03-29T10:30:33.738Z,11.50
2019-03-29T10:32:37.613Z,11.50
2019-03-29T10:34:41.444Z,11.50
2019-03-29T10:36:45.445Z,11.50
2019-03-29T10:38:49.250Z,11.50
2019-03-29T10:40:53.191Z,11.50
2019-03-29T10:42:58.436Z,11.50
2019-03-29T10:45:02.438Z,11.40
2019-03-29T10:47:06.286Z,11.50
2019-03-29T10:49:10.222Z,11.50
2019-03-29T10:51:14.018Z,11.60
2019-03-29T10:53:17.920Z,11.50
2019-03-29T10:55:21.798Z,11.60
2019-03-29T10:57:25.697Z,11.70
2019-03-29T10:59:29.540Z,11.80
2019-03-29T11:01:33.444Z,11.90
2019-03-29T11:03:37.320Z,11.90
2019-03-29T11:05:41.278Z,11.90
2019-03-29T11:07:45.162Z,11.90
2019-03-29T11:09:49.067Z,12.00
2019-03-29T11:11:52.918Z,12.00
2019-03-29T11:13:56.939Z,12.00
2019-03-29T11:16:00.822Z,11.90
2019-03-29T11:18:05.390Z,11.90
2019-03-29T11:20:09.307Z,11.80
2019-03-29T11:22:13.199Z,11.80
2019-03-29T11:24:17.004Z,11.90
2019-03-29T11:26:21.068Z,11.80
2019-03-29T11:28:24.967Z,11.90
2019-03-29T11:30:41.542Z,12.00
2019-03-29T11:32:35.669Z,12.00
2019-03-29T11:34:39.657Z,12.00
2019-03-29T11:36:43.478Z,12.10
2019-03-29T11:38:47.332Z,12.20
2019-03-29T11:40:51.271Z,12.10
2019-03-29T11:42:55.116Z,12.10
2019-03-29T11:44:59.041Z,12.10
2019-03-29T11:47:02.962Z,12.00
2019-03-29T11:49:06.829Z,11.90
2019-03-29T11:51:19.066Z,11.80
2019-03-29T11:53:16.217Z,11.80
2019-03-29T11:55:20.072Z,11.80
2019-03-29T11:57:24.130Z,11.80
2019-03-29T11:59:28.045Z,11.90
2019-03-29T12:01:31.889Z,12.00
2019-03-29T12:03:35.794Z,12.00
2019-03-29T12:05:39.815Z,11.90
2019-03-29T12:07:43.730Z,12.00
2019-03-29T12:09:47.636Z,12.00
2019-03-29T12:11:51.530Z,12.00
2019-03-29T12:13:55.375Z,12.00
2019-03-29T12:15:59.379Z,12.00
2019-03-29T12:18:03.356Z,12.10
2019-03-29T12:20:07.802Z,12.20
2019-03-29T12:22:11.702Z,12.20
2019-03-29T12:24:15.505Z,12.40
2019-03-29T12:26:19.471Z,12.40
2019-03-29T12:28:23.450Z,12.30
2019-03-29T12:30:31.707Z,12.30
2019-03-29T12:32:33.305Z,12.30
2019-03-29T12:34:37.158Z,12.30
2019-03-29T12:36:41.056Z,12.40
2019-03-29T12:38:45.060Z,12.50
2019-03-29T12:40:48.974Z,12.70
2019-03-29T12:42:52.819Z,12.80
2019-03-29T12:44:56.663Z,12.70
2019-03-29T12:47:00.571Z,12.60
2019-03-29T12:49:04.448Z,12.60
2019-03-29T12:51:08.312Z,12.60
2019-03-29T12:53:12.195Z,12.60
2019-03-29T12:55:16.206Z,12.70
2019-03-29T12:57:20.035Z,12.70
2019-03-29T12:59:23.984Z,12.80
2019-03-29T13:01:38.428Z,13.10
2019-03-29T13:03:33.452Z,13.40
2019-03-29T13:05:37.468Z,13.50
2019-03-29T13:07:41.449Z,13.60
2019-03-29T13:09:45.363Z,13.50
2019-03-29T13:11:49.233Z,13.60
2019-03-29T13:13:53.169Z,13.60
2019-03-29T13:15:57.102Z,13.60
2019-03-29T13:18:00.948Z,13.40
2019-03-29T13:20:05.879Z,13.40
2019-03-29T13:22:10.335Z,13.20
2019-03-29T13:24:15.998Z,13.10
2019-03-29T13:26:19.770Z,13.10
2019-03-29T13:28:23.765Z,13.30
2019-03-29T13:30:27.629Z,13.40
2019-03-29T13:32:33.410Z,13.40
2019-03-29T13:34:37.020Z,13.50
2019-03-29T13:36:41.143Z,13.70
2019-03-29T13:38:45.036Z,13.70
2019-03-29T13:40:48.926Z,14.00
2019-03-29T13:42:52.757Z,14.40
2019-03-29T13:44:56.746Z,14.40
2019-03-29T13:47:00.578Z,14.20
2019-03-29T13:49:04.454Z,13.90
2019-03-29T13:51:08.902Z,13.80
2019-03-29T13:53:12.745Z,13.70
2019-03-29T13:55:16.647Z,13.70
2019-03-29T13:57:20.555Z,14.00
2019-03-29T13:59:24.419Z,14.60
2019-03-29T14:01:28.233Z,14.60
2019-03-29T14:03:32.171Z,14.50
2019-03-29T14:05:36.049Z,14.30
2019-03-29T14:07:39.931Z,14.20
2019-03-29T14:09:43.860Z,14.10
2019-03-29T14:11:47.761Z,13.90
2019-03-29T14:13:51.600Z,13.80
2019-03-29T14:15:55.507Z,13.80
2019-03-29T14:17:59.394Z,13.70
2019-03-29T14:20:03.223Z,13.60
2019-03-29T14:22:07.205Z,13.70
2019-03-29T14:24:11.067Z,13.90
2019-03-29T14:26:16.209Z,14.10
2019-03-29T14:28:20.376Z,14.00
2019-03-29T14:30:24.183Z,13.90
2019-03-29T14:32:28.093Z,14.00
2019-03-29T14:34:32.019Z,14.00
2019-03-29T14:36:35.919Z,14.20
2019-03-29T14:38:39.778Z,14.30
2019-03-29T14:40:43.712Z,14.40
2019-03-29T14:42:47.551Z,14.50
2019-03-29T14:44:52.748Z,14.70
2019-03-29T14:46:57.154Z,14.90
2019-03-29T14:49:01.014Z,15.00
2019-03-29T14:51:04.840Z,15.10
2019-03-29T14:53:08.851Z,15.10
2019-03-29T14:55:12.889Z,15.10
2019-03-29T14:57:16.787Z,15.00
2019-03-29T14:59:20.717Z,14.80
2019-03-29T15:01:24.611Z,14.60
2019-03-29T15:03:28.495Z,14.60
2019-03-29T15:05:32.460Z,14.50
2019-03-29T15:07:36.600Z,14.50
2019-03-29T15:09:40.447Z,14.60
2019-03-29T15:11:44.373Z,14.70
2019-03-29T15:13:48.219Z,14.80
2019-03-29T15:15:53.673Z,14.90
2019-03-29T15:17:57.739Z,15.10
2019-03-29T15:20:01.612Z,15.20
2019-03-29T15:22:05.458Z,15.30
2019-03-29T15:24:09.375Z,15.30
2019-03-29T15:26:13.253Z,15.40
2019-03-29T15:28:17.108Z,15.30
2019-03-29T15:30:21.039Z,15.30
2019-03-29T15:32:24.916Z,15.20
2019-03-29T15:34:28.781Z,15.00
2019-03-29T15:36:32.703Z,15.10
2019-03-29T15:38:36.670Z,15.20
2019-03-29T15:40:40.516Z,15.30
2019-03-29T15:42:44.375Z,15.10
2019-03-29T15:44:48.472Z,15.10
2019-03-29T15:46:52.318Z,15.20
2019-03-29T15:48:56.194Z,15.20
2019-03-29T15:51:00.216Z,15.10
2019-03-29T15:53:04.021Z,15.00
2019-03-29T15:55:11.190Z,15.00
2019-03-29T15:57:13.970Z,14.90
2019-03-29T15:59:17.808Z,14.80
2019-03-29T16:01:21.683Z,14.80
2019-03-29T16:03:25.622Z,14.70
2019-03-29T16:05:29.474Z,14.60
2019-03-29T16:07:34.962Z,14.50
2019-03-29T16:09:39.012Z,14.60
2019-03-29T16:11:42.908Z,14.50
2019-03-29T16:13:46.747Z,14.40
2019-03-29T16:15:50.611Z,14.50
2019-03-29T16:17:54.402Z,14.70
2019-03-29T16:19:58.643Z,14.80
2019-03-29T16:22:05.772Z,15.00
2019-03-29T16:24:08.104Z,14.90
2019-03-29T16:26:11.981Z,14.80
2019-03-29T16:28:15.917Z,14.70
2019-03-29T16:30:20.025Z,14.70
2019-03-29T16:32:23.861Z,14.80
2019-03-29T16:34:27.803Z,15.10
2019-03-29T16:36:32.358Z,14.80
2019-03-29T16:38:36.280Z,15.00
2019-03-29T16:40:40.178Z,15.10
2019-03-29T16:42:44.066Z,15.10
2019-03-29T16:44:47.925Z,15.40
2019-03-29T16:46:52.746Z,14.80
2019-03-29T16:48:56.649Z,14.20
2019-03-29T16:51:00.522Z,13.90
2019-03-29T16:53:04.850Z,13.60
2019-03-29T16:55:13.436Z,13.40
2019-03-29T16:57:14.566Z,13.30
2019-03-29T16:59:18.488Z,13.30
2019-03-29T17:01:22.323Z,13.10
2019-03-29T17:03:26.212Z,13.10
2019-03-29T17:05:30.100Z,13.00
2019-03-29T17:07:34.031Z,12.90
2019-03-29T17:09:37.836Z,12.90
2019-03-29T17:11:41.813Z,12.80
2019-03-29T17:13:45.657Z,12.70
2019-03-29T17:16:01.025Z,12.70
2019-03-29T17:17:57.082Z,12.60
2019-03-29T17:20:00.620Z,12.60
2019-03-29T17:22:04.553Z,12.50
2019-03-29T17:24:08.476Z,12.40
2019-03-29T17:26:12.442Z,12.30
2019-03-29T17:28:16.298Z,12.30
2019-03-29T17:30:23.175Z,12.30
2019-03-29T17:32:27.078Z,12.10
2019-03-29T17:34:31.008Z,12.10
2019-03-29T17:36:34.958Z,12.00
2019-03-29T17:38:38.827Z,11.90
2019-03-29T17:40:42.672Z,11.90
2019-03-29T17:42:46.534Z,11.90
2019-03-29T17:44:50.451Z,11.80
2019-03-29T17:46:54.333Z,11.80
2019-03-29T17:48:58.212Z,11.70
2019-03-29T17:51:02.196Z,11.60
2019-03-29T17:53:06.067Z,11.60
2019-03-29T17:55:10.059Z,11.60
2019-03-29T17:57:13.963Z,11.50
2019-03-29T17:59:17.832Z,11.40
2019-03-29T18:01:21.757Z,11.40
2019-03-29T18:03:25.591Z,11.30
2019-03-29T18:05:29.489Z,11.30
2019-03-29T18:07:33.431Z,11.20
2019-03-29T18:09:37.303Z,11.20
2019-03-29T18:11:44.771Z,11.10
2019-03-29T18:13:48.704Z,11.10
2019-03-29T18:15:52.563Z,11.00
2019-03-29T18:17:56.459Z,11.00
2019-03-29T18:20:00.373Z,10.90
2019-03-29T18:22:04.211Z,10.90
2019-03-29T18:24:08.062Z,11.00
2019-03-29T18:26:11.955Z,10.90
2019-03-29T18:28:15.829Z,10.80
2019-03-29T18:30:22.608Z,10.80
2019-03-29T18:32:26.588Z,10.70
2019-03-29T18:34:30.426Z,10.70
2019-03-29T18:36:34.775Z,10.70
2019-03-29T18:38:40.796Z,10.60
2019-03-29T18:40:44.639Z,10.60
2019-03-29T18:42:48.483Z,10.60
2019-03-29T18:44:52.651Z,10.50
2019-03-29T18:46:56.515Z,10.50
2019-03-29T18:49:00.358Z,10.40
2019-03-29T18:51:04.446Z,10.40
2019-03-29T18:53:08.347Z,10.30
2019-03-29T18:55:12.184Z,10.30
2019-03-29T18:57:16.112Z,10.30
2019-03-29T18:59:20.030Z,10.20
2019-03-29T19:01:23.865Z,10.20
2019-03-29T19:03:28.149Z,10.10
2019-03-29T19:05:32.199Z,10.00
2019-03-29T19:07:36.096Z,10.00
2019-03-29T19:09:39.978Z,9.90
2019-03-29T19:11:43.883Z,9.90
2019-03-29T19:13:47.755Z,9.90
2019-03-29T19:15:51.644Z,10.00
2019-03-29T19:17:55.668Z,9.90
2019-03-29T19:19:59.468Z,9.90
2019-03-29T19:22:03.439Z,9.90
2019-03-29T19:24:07.574Z,9.80
2019-03-29T19:26:11.441Z,9.80
2019-03-29T19:28:16.848Z,9.80
2019-03-29T19:30:21.113Z,9.80
2019-03-29T19:32:24.984Z,9.70
2019-03-29T19:34:28.910Z,9.60
2019-03-29T19:36:32.862Z,9.60
2019-03-29T19:38:36.771Z,9.60
2019-03-29T19:40:40.744Z,9.60
2019-03-29T19:42:44.683Z,9.60
2019-03-29T19:44:48.567Z,9.60
2019-03-29T19:46:52.463Z,9.60
2019-03-29T19:48:56.345Z,9.60
2019-03-29T19:51:00.183Z,9.50
2019-03-29T19:53:04.205Z,9.50
2019-03-29T19:55:08.213Z,9.40
2019-03-29T19:57:12.171Z,9.40
2019-03-29T19:59:16.060Z,9.40
2019-03-29T20:01:19.991Z,9.30
2019-03-29T20:03:23.880Z,9.30
2019-03-29T20:05:28.695Z,9.20
2019-03-29T20:07:32.604Z,9.20
2019-03-29T20:09:36.454Z,9.20
2019-03-29T20:11:40.359Z,9.20
2019-03-29T20:13:44.183Z,9.20
2019-03-29T20:15:48.372Z,9.10
2019-03-29T20:17:52.480Z,9.00
2019-03-29T20:19:56.364Z,9.00
2019-03-29T20:22:00.224Z,9.00
2019-03-29T20:24:04.182Z,8.90
2019-03-29T20:26:08.472Z,8.90
2019-03-29T20:28:12.374Z,8.90
2019-03-29T20:30:16.460Z,8.80
2019-03-29T20:32:20.306Z,8.80
2019-03-29T20:34:24.196Z,8.80
2019-03-29T20:36:28.049Z,8.80
2019-03-29T20:38:32.373Z,8.70
2019-03-29T20:40:36.248Z,8.70
2019-03-29T20:42:40.148Z,8.60
2019-03-29T20:44:44.023Z,8.50
2019-03-29T20:46:47.841Z,8.50
2019-03-29T20:48:51.795Z,8.50
2019-03-29T20:50:55.683Z,8.40
2019-03-29T20:52:59.606Z,8.40
2019-03-29T20:55:03.651Z,8.40
2019-03-29T20:57:07.452Z,9.30
2019-03-29T20:59:11.384Z,9.20
2019-03-29T21:01:15.286Z,8.90
2019-03-29T21:03:19.139Z,8.60
2019-03-29T21:05:22.995Z,8.50
2019-03-29T21:07:26.925Z,8.30
2019-03-29T21:09:30.800Z,8.20
2019-03-29T21:11:34.666Z,8.10
2019-03-29T21:13:38.772Z,8.10
2019-03-29T21:15:42.750Z,8.10
2019-03-29T21:17:56.407Z,8.10
2019-03-29T21:19:52.196Z,8.10
2019-03-29T21:21:56.061Z,8.10
2019-03-29T21:24:01.404Z,8.10
2019-03-29T21:26:05.299Z,8.00
2019-03-29T21:28:09.204Z,8.00
2019-03-29T21:30:13.655Z,8.00
2019-03-29T21:32:17.570Z,8.00
2019-03-29T21:34:23.618Z,7.90
2019-03-29T21:36:27.488Z,7.90
2019-03-29T21:38:31.416Z,7.90
2019-03-29T21:40:35.526Z,7.90
2019-03-29T21:42:39.607Z,7.80
2019-03-29T21:44:45.183Z,7.70
2019-03-29T21:46:49.476Z,7.60
2019-03-29T21:48:53.365Z,7.60
2019-03-29T21:50:57.347Z,7.60
2019-03-29T21:53:01.234Z,7.60
2019-03-29T21:55:05.994Z,7.50
2019-03-29T21:57:09.881Z,7.50
2019-03-29T21:59:14.075Z,7.50
2019-03-29T22:01:17.972Z,7.50
2019-03-29T22:03:22.371Z,7.50
2019-03-29T22:05:26.293Z,7.50
2019-03-29T22:07:30.144Z,7.40
2019-03-29T22:09:37.099Z,7.40
2019-03-29T22:11:39.544Z,7.30
2019-03-29T22:13:43.415Z,7.30
2019-03-29T22:15:47.391Z,7.30
2019-03-29T22:17:51.230Z,7.20
2019-03-29T22:19:55.187Z,7.20
2019-03-29T22:21:59.092Z,7.10
2019-03-29T22:24:03.034Z,7.10
2019-03-29T22:26:07.014Z,7.10
2019-03-29T22:28:10.872Z,7.10
2019-03-29T22:30:15.261Z,7.10
2019-03-29T22:32:19.130Z,7.10
2019-03-29T22:34:23.037Z,7.20
2019-03-29T22:36:26.920Z,7.10
2019-03-29T22:38:30.786Z,7.10
2019-03-29T22:40:34.695Z,7.10
2019-03-29T22:42:38.775Z,7.10
2019-03-29T22:44:42.674Z,7.00
2019-03-29T22:46:46.563Z,7.10
2019-03-29T22:48:52.438Z,7.00
2019-03-29T22:50:55.915Z,7.10
2019-03-29T22:52:59.859Z,7.00
2019-03-29T22:55:05.312Z,7.10
2019-03-29T22:57:09.157Z,7.00
2019-03-29T22:59:13.499Z,7.00
2019-03-29T23:01:17.878Z,6.90
2019-03-29T23:03:21.932Z,6.90
2019-03-29T23:05:25.877Z,6.90
2019-03-29T23:07:33.346Z,6.90
2019-03-29T23:09:41.145Z,6.90
2019-03-29T23:11:49.822Z,6.90
2019-03-29T23:13:57.993Z,6.90
2019-03-29T23:16:06.482Z,6.90
2019-03-29T23:18:10.619Z,6.90
2019-03-29T23:20:14.599Z,6.90
2019-03-29T23:22:18.472Z,6.80
2019-03-29T23:24:22.366Z,6.80
2019-03-29T23:26:26.181Z,6.80
2019-03-29T23:28:30.122Z,6.70
2019-03-29T23:30:34.055Z,6.80
2019-03-29T23:32:37.880Z,6.80
2019-03-29T23:34:41.834Z,6.80
2019-03-29T23:36:45.692Z,6.70
2019-03-29T23:38:49.616Z,6.60
2019-03-29T23:40:53.411Z,6.60
2019-03-29T23:42:57.303Z,6.50
2019-03-29T23:45:01.249Z,6.40
2019-03-29T23:47:05.083Z,6.40
2019-03-29T23:49:20.468Z,6.40
2019-03-29T23:51:14.491Z,6.40
2019-03-29T23:53:18.331Z,6.40
2019-03-29T23:55:22.237Z,6.20
2019-03-29T23:57:26.095Z,6.30
2019-03-29T23:59:29.911Z,6.20
